Here is the Quick Look data you requested

The Data originates at the National Weather Service, and is made available here by the UAlbany Department of Atmospheric and Environmental Sciences

Surface Observations

KCVG 132052Z 21017G22KT 10SM OVC200 03/M12 A2950 RMK AO2 PK WND 19027/2014
 SLP997 T00281117 55044=
KCVG 132152Z 21017G24KT 10SM SCT043 BKN055 BKN200 03/M10 A2947 RMK AO2 SLP984
 T00331100=
KCVG 132252Z 22015G20KT 10SM OVC055 04/M09 A2947 RMK AO2 SLP985 T00391094=
KCVG 132352Z 21011KT 10SM OVC049 04/M08 A2945 RMK AO2 SLP979 T00441078 10044
 20006 56017=
KCVG 140052Z 22013G23KT 10SM OVC049 06/M06 A2944 RMK AO2 SLP974 T00611056=
KCVG 140152Z 24014G22KT 10SM OVC047 07/M03 A2946 RMK AO2 PK WND 23026/0055
 SLP979 T00721033=
KCVG 140252Z 28024G36KT 10SM BKN030 OVC039 06/01 A2952 RMK AO2 PK WND
 28039/0240 SLP999 WSHFT 40 FROPA T00560006 53021=
KCVG 140352Z 28028G36KT 10SM OVC031 05/M01 A2955 RMK AO2 PK WND 28043/0326
 SLP009 T00501011=
KCVG 140452Z 29018G29KT 10SM BKN030 OVC036 04/M02 A2958 RMK AO2 PK WND
 28038/0400 SLP022 T00441017 400781094=
KCVG 140503Z 27026G38KT 10SM BKN028 OVC036 04/M02 A2959 RMK AO2 PK WND
 27038/0501 BKN V OVC T00391017=
KCVG 140531Z 29022G30KT 10SM BKN032 OVC041 03/M02 A2961 RMK AO2 PK WND
 27038/0501 T00331022=
KCVG 140552Z 28023G30KT 10SM BKN031 OVC039 03/M02 A2962 RMK AO2 PK WND
 27038/0501 SLP034 T00331022 10078 20033 53035=
KCVG 140628Z 30021G28KT 10SM BKN028 OVC039 02/M03 A2965 RMK AO2 PK WND
 28032/0607 PRESRR T00221028=
KCVG 140652Z 30019G33KT 10SM OVC026 02/M03 A2968 RMK AO2 PK WND 30034/0642
 SLP054 T00171033=
KCVG 140752Z 30015G24KT 10SM BKN027 BKN033 OVC047 01/M05 A2974 RMK AO2 PK WND
 28034/0658 PRESRR SLP074 BINOVC OHD T00061050=
KCVG 140839Z 32016G23KT 10SM SCT029 OVC036 00/M06 A2977 RMK AO2 PK WND
 31026/0801 T00001056=
KCVG 140852Z 31011KT 10SM SCT027 OVC034 00/M06 A2977 RMK AO2 PK WND 31026/0801
 SLP087 SCT V BKN T00001056 51050=
KCVG 140905Z 31019G23KT 10SM BKN027 OVC033 M01/M06 A2978 RMK AO2 T10061056=
KCVG 140952Z 31011KT 10SM OVC027 M01/M06 A2980 RMK AO2 SLP096 T10061056=
KCVG 141052Z 34011KT 10SM OVC027 M01/M06 A2984 RMK AO2 SLP110 T10061056=
KCVG 141118Z 34017KT 10SM OVC032 M02/M08 A2987 RMK AO2 BINOVC T10171078=
KCVG 141152Z 33011KT 10SM OVC032 M03/M08 A2989 RMK AO2 SLP127 BINOVC T10281078
 10033 21028 53039=
KCVG 141252Z 35011KT 10SM SCT026 BKN250 M04/M08 A2993 RMK AO2 SLP140 T10391083=
KCVG 141313Z 01008G17KT 9SM BKN024 BKN250 M04/M08 A2994 RMK AO2 T10391078=
KCVG 141352Z 36007KT 9SM OVC022 M04/M08 A2996 RMK AO2 SLP151 T10391078=
KCVG 141452Z 02009KT 9SM OVC022 M04/M08 A2998 RMK AO2 SLP158 T10391083 51030=
KCVG 141552Z 02009KT 8SM OVC022 M03/M08 A3001 RMK AO2 SLP167 T10281078=
KCVG 141652Z 35009KT 10SM BKN022 OVC200 M03/M08 A3002 RMK AO2 SLP171 BINOVC
 T10281083=
KCVG 141752Z 02005KT 10SM BKN022 OVC190 M03/M08 A3003 RMK AO2 SLP173 T10281083
 11017 21044 51014=
KCVG 141852Z 36007KT 10SM BKN024 OVC180 M03/M08 A3002 RMK AO2 SLP173 T10281083=
KCVG 141920Z 35005KT 10SM SCT024 BKN210 M02/M08 A3002 RMK AO2 T10221078=
KCVG 141952Z 02009KT 10SM SCT025 BKN210 M02/M08 A3003 RMK AO2 SLP174 T10221083=
KCVG 142052Z 06005KT 10SM FEW025 BKN200 M03/M08 A3003 RMK AO2 SLP176 T10281083
 53001=